aviador You're here:

GCRR Decoded Metar

LANZAROTE in SPAIN
Report Time2017-08-22 11:00:00
UTC Time2017-08-22 11:15:36
Flight Rules vfr VFR
WindVRB at 06 kt
Visibility9999 m
Phenomena:N/A
Clouds:N/A
Expected CloudBase > 4,000 ft AGL from Temp-Dew spread
CeilingNone
Temp29°C (ISA +14)
Dew Point19°C (55% RH)
Heat Index30.3°C
QNH1014 hPa
Density Alt2,028 ft
Elevation131 ft
Report Wrong Elevation
Raw Report
GCRR 221100Z VRB06KT CAVOK 29/19 Q1014 WS R03=

Extra information for GCRR:More info

Metar Taf Metar & Taf Last 4 Metars F.Rules Stats Wind Profile Meteogram Temp Stats Airport Information Weather charts Add Link Nearby VenuesMetar ALERT Operation Metar Decoded Social comments